sensor_id;sensor_type;location;lat;lon;timestamp;P1;durP1;ratioP1;P2;durP2;ratioP2
78744;SDS011;68064;53.100;8.824;2023-05-07T00:00:03;11.40;;;3.85;;
78744;SDS011;68064;53.100;8.824;2023-05-07T00:01:05;12.15;;;3.28;;
78744;SDS011;68064;53.100;8.824;2023-05-07T00:02:06;9.23;;;2.65;;
78744;SDS011;68064;53.100;8.824;2023-05-07T00:04:08;10.13;;;2.95;;
78744;SDS011;68064;53.100;8.824;2023-05-07T00:06:10;11.63;;;4.03;;
78744;SDS011;68064;53.100;8.824;2023-05-07T00:07:11;10.63;;;4.28;;
78744;SDS011;68064;53.100;8.824;2023-05-07T00:08:12;10.15;;;3.80;;
78744;SDS011;68064;53.100;8.824;2023-05-07T00:09:13;10.32;;;3.72;;
78744;SDS011;68064;53.100;8.824;2023-05-07T00:10:15;12.23;;;4.53;;
78744;SDS011;68064;53.100;8.824;2023-05-07T00:11:16;11.30;;;4.13;;
78744;SDS011;68064;53.100;8.824;2023-05-07T00:12:17;10.77;;;3.53;;
78744;SDS011;68064;53.100;8.824;2023-05-07T00:13:19;11.45;;;4.20;;
78744;SDS011;68064;53.100;8.824;2023-05-07T00:14:20;8.90;;;2.88;;
78744;SDS011;68064;53.100;8.824;2023-05-07T00:15:21;9.88;;;3.70;;
78744;SDS011;68064;53.100;8.824;2023-05-07T00:17:23;11.00;;;4.68;;
78744;SDS011;68064;53.100;8.824;2023-05-07T00:18:24;12.10;;;3.60;;
78744;SDS011;68064;53.100;8.824;2023-05-07T00:19:25;13.82;;;5.00;;
78744;SDS011;68064;53.100;8.824;2023-05-07T00:20:26;11.35;;;4.13;;
78744;SDS011;68064;53.100;8.824;2023-05-07T00:21:27;10.15;;;3.30;;
78744;SDS011;68064;53.100;8.824;2023-05-07T00:22:28;11.23;;;3.58;;
78744;SDS011;68064;53.100;8.824;2023-05-07T00:23:29;9.38;;;3.10;;
78744;SDS011;68064;53.100;8.824;2023-05-07T00:24:30;12.18;;;4.63;;
78744;SDS011;68064;53.100;8.824;2023-05-07T00:26:34;12.27;;;3.67;;
78744;SDS011;68064;53.100;8.824;2023-05-07T00:27:35;11.73;;;4.03;;
78744;SDS011;68064;53.100;8.824;2023-05-07T00:28:36;12.05;;;3.63;;
78744;SDS011;68064;53.100;8.824;2023-05-07T00:29:37;14.00;;;5.07;;
78744;SDS011;68064;53.100;8.824;2023-05-07T00:30:38;10.88;;;3.63;;
78744;SDS011;68064;53.100;8.824;2023-05-07T00:31:39;10.15;;;4.07;;
78744;SDS011;68064;53.100;8.824;2023-05-07T00:32:40;10.85;;;3.28;;
78744;SDS011;68064;53.100;8.824;2023-05-07T00:33:41;11.10;;;3.58;;
78744;SDS011;68064;53.100;8.824;2023-05-07T00:34:42;10.02;;;3.28;;
78744;SDS011;68064;53.100;8.824;2023-05-07T00:36:44;11.60;;;3.20;;
78744;SDS011;68064;53.100;8.824;2023-05-07T00:37:45;12.07;;;4.35;;
78744;SDS011;68064;53.100;8.824;2023-05-07T00:38:46;10.50;;;3.40;;
78744;SDS011;68064;53.100;8.824;2023-05-07T00:39:47;12.82;;;4.55;;
78744;SDS011;68064;53.100;8.824;2023-05-07T00:41:51;10.43;;;3.80;;
78744;SDS011;68064;53.100;8.824;2023-05-07T00:42:52;11.60;;;3.63;;
78744;SDS011;68064;53.100;8.824;2023-05-07T00:43:53;10.23;;;3.90;;
78744;SDS011;68064;53.100;8.824;2023-05-07T00:44:54;9.10;;;2.92;;
78744;SDS011;68064;53.100;8.824;2023-05-07T00:45:55;11.63;;;3.95;;
78744;SDS011;68064;53.100;8.824;2023-05-07T00:47:58;10.90;;;4.18;;
78744;SDS011;68064;53.100;8.824;2023-05-07T00:49:00;12.30;;;4.82;;
78744;SDS011;68064;53.100;8.824;2023-05-07T00:50:02;9.75;;;3.28;;
78744;SDS011;68064;53.100;8.824;2023-05-07T00:51:04;12.57;;;3.83;;
78744;SDS011;68064;53.100;8.824;2023-05-07T00:52:05;9.98;;;3.65;;
78744;SDS011;68064;53.100;8.824;2023-05-07T00:53:07;9.15;;;3.35;;
78744;SDS011;68064;53.100;8.824;2023-05-07T00:55:09;11.00;;;3.97;;
78744;SDS011;68064;53.100;8.824;2023-05-07T00:56:11;11.50;;;4.30;;
78744;SDS011;68064;53.100;8.824;2023-05-07T00:57:13;11.57;;;3.40;;
78744;SDS011;68064;53.100;8.824;2023-05-07T00:58:15;11.93;;;4.57;;
78744;SDS011;68064;53.100;8.824;2023-05-07T00:59:17;10.45;;;3.30;;
78744;SDS011;68064;53.100;8.824;2023-05-07T01:01:19;10.88;;;4.50;;
78744;SDS011;68064;53.100;8.824;2023-05-07T01:02:20;11.05;;;4.10;;
78744;SDS011;68064;53.100;8.824;2023-05-07T01:03:21;11.05;;;3.70;;
78744;SDS011;68064;53.100;8.824;2023-05-07T01:04:22;10.75;;;3.47;;
78744;SDS011;68064;53.100;8.824;2023-05-07T01:05:23;10.98;;;4.78;;
78744;SDS011;68064;53.100;8.824;2023-05-07T01:06:26;12.60;;;3.90;;
78744;SDS011;68064;53.100;8.824;2023-05-07T01:07:29;11.30;;;4.15;;
78744;SDS011;68064;53.100;8.824;2023-05-07T01:08:31;11.30;;;3.72;;
78744;SDS011;68064;53.100;8.824;2023-05-07T01:09:33;9.68;;;3.17;;
78744;SDS011;68064;53.100;8.824;2023-05-07T01:10:35;11.77;;;4.13;;
78744;SDS011;68064;53.100;8.824;2023-05-07T01:11:38;9.60;;;2.72;;
78744;SDS011;68064;53.100;8.824;2023-05-07T01:12:40;10.55;;;3.67;;
78744;SDS011;68064;53.100;8.824;2023-05-07T01:13:42;10.75;;;3.58;;
78744;SDS011;68064;53.100;8.824;2023-05-07T01:14:44;10.60;;;3.78;;
78744;SDS011;68064;53.100;8.824;2023-05-07T01:15:45;10.65;;;3.70;;
78744;SDS011;68064;53.100;8.824;2023-05-07T01:16:46;10.80;;;3.97;;
78744;SDS011;68064;53.100;8.824;2023-05-07T01:18:48;11.48;;;3.67;;
78744;SDS011;68064;53.100;8.824;2023-05-07T01:19:50;11.80;;;4.22;;
78744;SDS011;68064;53.100;8.824;2023-05-07T01:20:51;10.45;;;3.70;;
78744;SDS011;68064;53.100;8.824;2023-05-07T01:21:52;12.77;;;4.40;;
78744;SDS011;68064;53.100;8.824;2023-05-07T01:23:03;11.30;;;3.92;;
78744;SDS011;68064;53.100;8.824;2023-05-07T01:24:04;13.23;;;5.22;;
78744;SDS011;68064;53.100;8.824;2023-05-07T01:25:06;12.88;;;5.20;;
78744;SDS011;68064;53.100;8.824;2023-05-07T01:26:08;11.98;;;4.88;;
78744;SDS011;68064;53.100;8.824;2023-05-07T01:27:09;10.75;;;4.05;;
78744;SDS011;68064;53.100;8.824;2023-05-07T01:28:10;11.32;;;3.90;;
78744;SDS011;68064;53.100;8.824;2023-05-07T01:29:11;9.88;;;3.88;;
78744;SDS011;68064;53.100;8.824;2023-05-07T01:30:12;10.07;;;3.50;;
78744;SDS011;68064;53.100;8.824;2023-05-07T01:31:13;12.50;;;4.93;;
78744;SDS011;68064;53.100;8.824;2023-05-07T01:32:16;12.13;;;3.67;;
78744;SDS011;68064;53.100;8.824;2023-05-07T01:33:22;12.48;;;4.28;;
78744;SDS011;68064;53.100;8.824;2023-05-07T01:34:24;11.77;;;3.33;;
78744;SDS011;68064;53.100;8.824;2023-05-07T01:35:29;11.63;;;4.50;;
78744;SDS011;68064;53.100;8.824;2023-05-07T01:36:32;9.15;;;2.53;;
78744;SDS011;68064;53.100;8.824;2023-05-07T01:37:35;11.40;;;3.55;;
78744;SDS011;68064;53.100;8.824;2023-05-07T01:38:37;12.15;;;4.20;;
78744;SDS011;68064;53.100;8.824;2023-05-07T01:39:40;10.15;;;3.50;;
78744;SDS011;68064;53.100;8.824;2023-05-07T01:40:42;10.68;;;3.50;;
78744;SDS011;68064;53.100;8.824;2023-05-07T01:41:44;11.77;;;4.53;;
78744;SDS011;68064;53.100;8.824;2023-05-07T01:42:46;10.43;;;3.55;;
78744;SDS011;68064;53.100;8.824;2023-05-07T01:43:48;10.82;;;3.45;;
78744;SDS011;68064;53.100;8.824;2023-05-07T01:44:51;13.07;;;4.85;;
78744;SDS011;68064;53.100;8.824;2023-05-07T01:46:53;10.70;;;3.03;;
78744;SDS011;68064;53.100;8.824;2023-05-07T01:47:55;10.80;;;3.72;;
78744;SDS011;68064;53.100;8.824;2023-05-07T01:48:57;11.68;;;3.25;;
78744;SDS011;68064;53.100;8.824;2023-05-07T01:50:59;9.73;;;2.97;;
78744;SDS011;68064;53.100;8.824;2023-05-07T01:52:00;11.63;;;3.92;;
78744;SDS011;68064;53.100;8.824;2023-05-07T01:54:04;11.43;;;3.78;;
78744;SDS011;68064;53.100;8.824;2023-05-07T01:55:06;10.95;;;2.90;;
78744;SDS011;68064;53.100;8.824;2023-05-07T01:56:07;10.85;;;3.80;;
78744;SDS011;68064;53.100;8.824;2023-05-07T01:57:08;12.57;;;4.95;;
78744;SDS011;68064;53.100;8.824;2023-05-07T01:58:09;9.80;;;3.47;;
78744;SDS011;68064;53.100;8.824;2023-05-07T01:59:11;9.73;;;3.25;;
78744;SDS011;68064;53.100;8.824;2023-05-07T02:00:12;12.90;;;4.50;;
78744;SDS011;68064;53.100;8.824;2023-05-07T02:01:13;12.43;;;4.15;;
78744;SDS011;68064;53.100;8.824;2023-05-07T02:02:14;9.85;;;3.25;;
78744;SDS011;68064;53.100;8.824;2023-05-07T02:03:15;12.60;;;4.70;;
78744;SDS011;68064;53.100;8.824;2023-05-07T02:04:16;8.35;;;2.75;;
78744;SDS011;68064;53.100;8.824;2023-05-07T02:06:18;11.25;;;3.40;;
78744;SDS011;68064;53.100;8.824;2023-05-07T02:08:20;11.13;;;3.45;;
78744;SDS011;68064;53.100;8.824;2023-05-07T02:09:23;12.32;;;3.38;;
78744;SDS011;68064;53.100;8.824;2023-05-07T02:10:24;10.40;;;3.28;;
78744;SDS011;68064;53.100;8.824;2023-05-07T02:11:25;12.30;;;3.75;;
78744;SDS011;68064;53.100;8.824;2023-05-07T02:12:26;9.00;;;2.55;;
78744;SDS011;68064;53.100;8.824;2023-05-07T02:13:28;10.23;;;2.30;;
78744;SDS011;68064;53.100;8.824;2023-05-07T02:14:30;11.15;;;3.65;;
78744;SDS011;68064;53.100;8.824;2023-05-07T02:15:31;12.75;;;4.55;;
78744;SDS011;68064;53.100;8.824;2023-05-07T02:16:32;9.75;;;3.45;;
78744;SDS011;68064;53.100;8.824;2023-05-07T02:17:33;9.18;;;2.80;;
78744;SDS011;68064;53.100;8.824;2023-05-07T02:19:35;9.35;;;2.80;;
78744;SDS011;68064;53.100;8.824;2023-05-07T02:20:36;10.52;;;3.35;;
78744;SDS011;68064;53.100;8.824;2023-05-07T02:21:37;9.27;;;2.45;;
78744;SDS011;68064;53.100;8.824;2023-05-07T02:22:38;9.88;;;2.97;;
78744;SDS011;68064;53.100;8.824;2023-05-07T02:23:39;9.57;;;2.55;;
78744;SDS011;68064;53.100;8.824;2023-05-07T02:24:42;9.88;;;3.10;;
78744;SDS011;68064;53.100;8.824;2023-05-07T02:25:43;11.80;;;3.25;;
78744;SDS011;68064;53.100;8.824;2023-05-07T02:26:44;9.82;;;3.08;;
78744;SDS011;68064;53.100;8.824;2023-05-07T02:28:46;10.60;;;3.08;;
78744;SDS011;68064;53.100;8.824;2023-05-07T02:29:47;9.07;;;2.38;;
78744;SDS011;68064;53.100;8.824;2023-05-07T02:30:48;10.95;;;3.35;;
78744;SDS011;68064;53.100;8.824;2023-05-07T02:31:49;10.02;;;3.50;;
78744;SDS011;68064;53.100;8.824;2023-05-07T02:32:50;10.32;;;3.13;;
78744;SDS011;68064;53.100;8.824;2023-05-07T02:33:52;11.65;;;3.85;;
78744;SDS011;68064;53.100;8.824;2023-05-07T02:34:53;13.60;;;4.60;;
78744;SDS011;68064;53.100;8.824;2023-05-07T02:35:54;11.07;;;4.18;;
78744;SDS011;68064;53.100;8.824;2023-05-07T02:36:55;10.38;;;3.72;;
78744;SDS011;68064;53.100;8.824;2023-05-07T02:37:56;10.80;;;3.25;;
78744;SDS011;68064;53.100;8.824;2023-05-07T02:38:57;11.70;;;3.88;;
78744;SDS011;68064;53.100;8.824;2023-05-07T02:39:59;14.07;;;5.28;;
78744;SDS011;68064;53.100;8.824;2023-05-07T02:41:00;14.85;;;4.05;;
78744;SDS011;68064;53.100;8.824;2023-05-07T02:43:02;11.02;;;3.60;;
78744;SDS011;68064;53.100;8.824;2023-05-07T02:44:03;11.45;;;2.90;;
78744;SDS011;68064;53.100;8.824;2023-05-07T02:45:05;10.82;;;3.60;;
78744;SDS011;68064;53.100;8.824;2023-05-07T02:46:08;11.77;;;3.45;;
78744;SDS011;68064;53.100;8.824;2023-05-07T02:47:10;9.25;;;2.72;;
78744;SDS011;68064;53.100;8.824;2023-05-07T02:48:11;11.25;;;3.85;;
78744;SDS011;68064;53.100;8.824;2023-05-07T02:49:12;15.43;;;4.35;;
78744;SDS011;68064;53.100;8.824;2023-05-07T02:50:13;10.63;;;3.00;;
78744;SDS011;68064;53.100;8.824;2023-05-07T02:51:14;13.32;;;5.35;;
78744;SDS011;68064;53.100;8.824;2023-05-07T02:52:15;12.70;;;3.75;;
78744;SDS011;68064;53.100;8.824;2023-05-07T02:53:16;11.35;;;3.20;;
78744;SDS011;68064;53.100;8.824;2023-05-07T02:54:17;12.50;;;3.70;;
78744;SDS011;68064;53.100;8.824;2023-05-07T02:55:19;10.77;;;2.80;;
78744;SDS011;68064;53.100;8.824;2023-05-07T02:56:20;13.88;;;4.70;;
78744;SDS011;68064;53.100;8.824;2023-05-07T02:57:22;10.23;;;3.47;;
78744;SDS011;68064;53.100;8.824;2023-05-07T02:58:23;11.38;;;3.83;;
78744;SDS011;68064;53.100;8.824;2023-05-07T02:59:24;11.52;;;3.80;;
78744;SDS011;68064;53.100;8.824;2023-05-07T03:00:25;10.98;;;2.78;;
78744;SDS011;68064;53.100;8.824;2023-05-07T03:01:26;11.57;;;3.55;;
78744;SDS011;68064;53.100;8.824;2023-05-07T03:02:27;10.38;;;3.88;;
78744;SDS011;68064;53.100;8.824;2023-05-07T03:03:28;11.20;;;3.60;;
78744;SDS011;68064;53.100;8.824;2023-05-07T03:05:30;11.52;;;3.65;;
78744;SDS011;68064;53.100;8.824;2023-05-07T03:06:31;13.50;;;4.07;;
78744;SDS011;68064;53.100;8.824;2023-05-07T03:07:32;11.85;;;3.55;;
78744;SDS011;68064;53.100;8.824;2023-05-07T03:08:33;10.88;;;3.55;;
78744;SDS011;68064;53.100;8.824;2023-05-07T03:09:34;11.90;;;3.65;;
78744;SDS011;68064;53.100;8.824;2023-05-07T03:10:37;12.63;;;4.47;;
78744;SDS011;68064;53.100;8.824;2023-05-07T03:11:38;12.15;;;3.53;;
78744;SDS011;68064;53.100;8.824;2023-05-07T03:12:39;11.65;;;3.47;;
78744;SDS011;68064;53.100;8.824;2023-05-07T03:13:40;11.77;;;3.75;;
78744;SDS011;68064;53.100;8.824;2023-05-07T03:14:41;10.95;;;3.83;;
78744;SDS011;68064;53.100;8.824;2023-05-07T03:15:42;11.55;;;3.45;;
78744;SDS011;68064;53.100;8.824;2023-05-07T03:16:44;13.65;;;3.67;;
78744;SDS011;68064;53.100;8.824;2023-05-07T03:17:45;11.98;;;4.03;;
78744;SDS011;68064;53.100;8.824;2023-05-07T03:18:46;11.48;;;3.88;;
78744;SDS011;68064;53.100;8.824;2023-05-07T03:19:47;11.68;;;3.22;;
78744;SDS011;68064;53.100;8.824;2023-05-07T03:20:48;12.32;;;3.65;;
78744;SDS011;68064;53.100;8.824;2023-05-07T03:22:50;10.75;;;3.58;;
78744;SDS011;68064;53.100;8.824;2023-05-07T03:23:51;10.00;;;3.25;;
78744;SDS011;68064;53.100;8.824;2023-05-07T03:25:54;9.88;;;2.50;;
78744;SDS011;68064;53.100;8.824;2023-05-07T03:26:55;10.65;;;3.85;;
78744;SDS011;68064;53.100;8.824;2023-05-07T03:27:56;12.63;;;3.50;;
78744;SDS011;68064;53.100;8.824;2023-05-07T03:28:57;10.02;;;3.08;;
78744;SDS011;68064;53.100;8.824;2023-05-07T03:29:59;12.32;;;4.07;;
78744;SDS011;68064;53.100;8.824;2023-05-07T03:31:00;10.45;;;3.03;;
78744;SDS011;68064;53.100;8.824;2023-05-07T03:32:01;10.90;;;3.40;;
78744;SDS011;68064;53.100;8.824;2023-05-07T03:33:02;12.40;;;4.25;;
78744;SDS011;68064;53.100;8.824;2023-05-07T03:34:03;12.70;;;3.90;;
78744;SDS011;68064;53.100;8.824;2023-05-07T03:36:05;12.77;;;3.97;;
78744;SDS011;68064;53.100;8.824;2023-05-07T03:37:07;12.27;;;3.67;;
78744;SDS011;68064;53.100;8.824;2023-05-07T03:38:08;12.13;;;3.60;;
78744;SDS011;68064;53.100;8.824;2023-05-07T03:39:09;11.73;;;4.28;;
78744;SDS011;68064;53.100;8.824;2023-05-07T03:40:10;12.80;;;4.43;;
78744;SDS011;68064;53.100;8.824;2023-05-07T03:41:14;11.93;;;3.58;;
78744;SDS011;68064;53.100;8.824;2023-05-07T03:42:15;12.82;;;4.15;;
78744;SDS011;68064;53.100;8.824;2023-05-07T03:43:16;12.07;;;4.07;;
78744;SDS011;68064;53.100;8.824;2023-05-07T03:44:17;13.80;;;4.90;;
78744;SDS011;68064;53.100;8.824;2023-05-07T03:45:18;13.20;;;4.20;;
78744;SDS011;68064;53.100;8.824;2023-05-07T03:46:19;11.00;;;3.08;;
78744;SDS011;68064;53.100;8.824;2023-05-07T03:47:20;12.75;;;4.07;;
78744;SDS011;68064;53.100;8.824;2023-05-07T03:48:21;10.60;;;3.70;;
78744;SDS011;68064;53.100;8.824;2023-05-07T03:49:22;12.23;;;3.70;;
78744;SDS011;68064;53.100;8.824;2023-05-07T03:50:23;12.95;;;3.83;;
78744;SDS011;68064;53.100;8.824;2023-05-07T03:51:24;12.23;;;4.95;;
78744;SDS011;68064;53.100;8.824;2023-05-07T03:52:26;10.63;;;3.17;;
78744;SDS011;68064;53.100;8.824;2023-05-07T03:53:27;10.77;;;2.95;;
78744;SDS011;68064;53.100;8.824;2023-05-07T03:54:28;11.27;;;3.35;;
78744;SDS011;68064;53.100;8.824;2023-05-07T03:55:30;9.07;;;2.47;;
78744;SDS011;68064;53.100;8.824;2023-05-07T03:56:33;10.77;;;3.42;;
78744;SDS011;68064;53.100;8.824;2023-05-07T03:57:34;10.68;;;3.50;;
78744;SDS011;68064;53.100;8.824;2023-05-07T03:58:35;10.02;;;2.83;;
78744;SDS011;68064;53.100;8.824;2023-05-07T03:59:36;10.40;;;2.97;;
78744;SDS011;68064;53.100;8.824;2023-05-07T04:00:37;11.23;;;3.67;;
78744;SDS011;68064;53.100;8.824;2023-05-07T04:01:38;10.32;;;3.53;;
78744;SDS011;68064;53.100;8.824;2023-05-07T04:02:39;11.25;;;4.32;;
78744;SDS011;68064;53.100;8.824;2023-05-07T04:03:40;12.20;;;4.43;;
78744;SDS011;68064;53.100;8.824;2023-05-07T04:04:41;11.27;;;3.05;;
78744;SDS011;68064;53.100;8.824;2023-05-07T04:05:42;10.27;;;3.33;;
78744;SDS011;68064;53.100;8.824;2023-05-07T04:06:43;11.43;;;3.70;;
78744;SDS011;68064;53.100;8.824;2023-05-07T04:08:45;11.57;;;3.30;;
78744;SDS011;68064;53.100;8.824;2023-05-07T04:09:46;11.63;;;3.22;;
78744;SDS011;68064;53.100;8.824;2023-05-07T04:10:47;10.98;;;3.45;;
78744;SDS011;68064;53.100;8.824;2023-05-07T04:12:51;11.02;;;3.70;;
78744;SDS011;68064;53.100;8.824;2023-05-07T04:13:54;11.35;;;3.40;;
78744;SDS011;68064;53.100;8.824;2023-05-07T04:14:55;10.82;;;2.90;;
78744;SDS011;68064;53.100;8.824;2023-05-07T04:15:56;10.43;;;3.70;;
78744;SDS011;68064;53.100;8.824;2023-05-07T04:16:57;10.80;;;3.28;;
78744;SDS011;68064;53.100;8.824;2023-05-07T04:18:59;17.17;;;3.53;;
78744;SDS011;68064;53.100;8.824;2023-05-07T04:20:00;8.82;;;2.65;;
78744;SDS011;68064;53.100;8.824;2023-05-07T04:21:02;11.20;;;3.30;;
78744;SDS011;68064;53.100;8.824;2023-05-07T04:22:03;10.27;;;2.92;;
78744;SDS011;68064;53.100;8.824;2023-05-07T04:23:04;9.68;;;2.28;;
78744;SDS011;68064;53.100;8.824;2023-05-07T04:24:06;11.15;;;2.65;;
78744;SDS011;68064;53.100;8.824;2023-05-07T04:25:08;10.95;;;3.45;;
78744;SDS011;68064;53.100;8.824;2023-05-07T04:26:09;9.02;;;2.72;;
78744;SDS011;68064;53.100;8.824;2023-05-07T04:27:12;10.13;;;2.67;;
78744;SDS011;68064;53.100;8.824;2023-05-07T04:28:13;9.18;;;2.38;;
78744;SDS011;68064;53.100;8.824;2023-05-07T04:29:14;10.10;;;2.53;;
78744;SDS011;68064;53.100;8.824;2023-05-07T04:30:15;9.55;;;2.80;;
78744;SDS011;68064;53.100;8.824;2023-05-07T04:31:16;11.13;;;3.45;;
78744;SDS011;68064;53.100;8.824;2023-05-07T04:32:17;10.43;;;3.05;;
78744;SDS011;68064;53.100;8.824;2023-05-07T04:33:18;11.20;;;3.65;;
78744;SDS011;68064;53.100;8.824;2023-05-07T04:34:19;9.35;;;2.80;;
78744;SDS011;68064;53.100;8.824;2023-05-07T04:35:21;10.75;;;3.40;;
78744;SDS011;68064;53.100;8.824;2023-05-07T04:36:22;10.18;;;3.05;;
78744;SDS011;68064;53.100;8.824;2023-05-07T04:37:25;9.52;;;3.22;;
78744;SDS011;68064;53.100;8.824;2023-05-07T04:38:26;8.68;;;2.15;;
78744;SDS011;68064;53.100;8.824;2023-05-07T04:39:27;10.13;;;3.38;;
78744;SDS011;68064;53.100;8.824;2023-05-07T04:40:28;11.52;;;3.28;;
78744;SDS011;68064;53.100;8.824;2023-05-07T04:41:29;10.50;;;3.00;;
78744;SDS011;68064;53.100;8.824;2023-05-07T04:42:32;10.48;;;3.20;;
78744;SDS011;68064;53.100;8.824;2023-05-07T04:43:33;12.82;;;4.43;;
78744;SDS011;68064;53.100;8.824;2023-05-07T04:44:34;11.02;;;3.83;;
78744;SDS011;68064;53.100;8.824;2023-05-07T04:46:36;8.98;;;2.60;;
78744;SDS011;68064;53.100;8.824;2023-05-07T04:47:37;9.50;;;2.83;;
78744;SDS011;68064;53.100;8.824;2023-05-07T04:48:38;9.57;;;2.80;;
78744;SDS011;68064;53.100;8.824;2023-05-07T04:49:39;11.75;;;4.05;;
78744;SDS011;68064;53.100;8.824;2023-05-07T04:50:40;8.82;;;2.67;;
78744;SDS011;68064;53.100;8.824;2023-05-07T04:51:41;10.95;;;3.33;;
78744;SDS011;68064;53.100;8.824;2023-05-07T04:52:43;11.02;;;2.92;;
78744;SDS011;68064;53.100;8.824;2023-05-07T04:53:44;10.73;;;3.40;;
78744;SDS011;68064;53.100;8.824;2023-05-07T04:54:45;11.10;;;3.15;;
78744;SDS011;68064;53.100;8.824;2023-05-07T04:55:46;10.93;;;3.70;;
78744;SDS011;68064;53.100;8.824;2023-05-07T04:56:47;10.98;;;3.03;;
78744;SDS011;68064;53.100;8.824;2023-05-07T04:57:49;9.45;;;2.60;;
78744;SDS011;68064;53.100;8.824;2023-05-07T04:58:50;9.63;;;3.28;;
78744;SDS011;68064;53.100;8.824;2023-05-07T04:59:51;10.05;;;2.40;;
78744;SDS011;68064;53.100;8.824;2023-05-07T05:00:53;10.85;;;2.97;;
78744;SDS011;68064;53.100;8.824;2023-05-07T05:01:54;9.38;;;2.78;;
78744;SDS011;68064;53.100;8.824;2023-05-07T05:02:55;9.13;;;2.40;;
78744;SDS011;68064;53.100;8.824;2023-05-07T05:03:56;9.77;;;2.72;;
78744;SDS011;68064;53.100;8.824;2023-05-07T05:04:57;10.48;;;3.33;;
78744;SDS011;68064;53.100;8.824;2023-05-07T05:05:58;8.32;;;2.28;;
78744;SDS011;68064;53.100;8.824;2023-05-07T05:06:59;8.77;;;2.40;;
78744;SDS011;68064;53.100;8.824;2023-05-07T05:08:00;8.73;;;2.75;;
78744;SDS011;68064;53.100;8.824;2023-05-07T05:09:01;10.68;;;2.70;;
78744;SDS011;68064;53.100;8.824;2023-05-07T05:10:03;8.70;;;2.28;;
78744;SDS011;68064;53.100;8.824;2023-05-07T05:11:05;9.70;;;2.70;;
78744;SDS011;68064;53.100;8.824;2023-05-07T05:12:06;10.48;;;2.67;;
78744;SDS011;68064;53.100;8.824;2023-05-07T05:13:09;10.15;;;3.47;;
78744;SDS011;68064;53.100;8.824;2023-05-07T05:14:10;8.98;;;2.85;;
78744;SDS011;68064;53.100;8.824;2023-05-07T05:15:11;11.18;;;3.70;;
78744;SDS011;68064;53.100;8.824;2023-05-07T05:16:13;9.48;;;2.83;;
78744;SDS011;68064;53.100;8.824;2023-05-07T05:17:14;10.55;;;3.03;;
78744;SDS011;68064;53.100;8.824;2023-05-07T05:19:37;11.30;;;3.92;;
78744;SDS011;68064;53.100;8.824;2023-05-07T05:20:38;8.43;;;2.25;;
78744;SDS011;68064;53.100;8.824;2023-05-07T05:21:39;8.48;;;2.53;;
78744;SDS011;68064;53.100;8.824;2023-05-07T05:22:40;10.52;;;3.22;;
78744;SDS011;68064;53.100;8.824;2023-05-07T05:23:42;8.57;;;2.10;;
78744;SDS011;68064;53.100;8.824;2023-05-07T05:24:43;10.70;;;2.95;;
78744;SDS011;68064;53.100;8.824;2023-05-07T05:25:44;7.75;;;1.80;;
78744;SDS011;68064;53.100;8.824;2023-05-07T05:26:45;8.57;;;2.58;;
78744;SDS011;68064;53.100;8.824;2023-05-07T05:28:48;10.77;;;3.33;;
78744;SDS011;68064;53.100;8.824;2023-05-07T05:29:49;8.20;;;1.88;;
78744;SDS011;68064;53.100;8.824;2023-05-07T05:31:51;8.43;;;1.88;;
78744;SDS011;68064;53.100;8.824;2023-05-07T05:32:52;9.35;;;2.92;;
78744;SDS011;68064;53.100;8.824;2023-05-07T05:33:53;9.80;;;2.80;;
78744;SDS011;68064;53.100;8.824;2023-05-07T05:34:54;10.27;;;3.03;;
78744;SDS011;68064;53.100;8.824;2023-05-07T05:35:55;9.70;;;2.22;;
78744;SDS011;68064;53.100;8.824;2023-05-07T05:36:56;8.98;;;2.42;;
78744;SDS011;68064;53.100;8.824;2023-05-07T05:37:59;9.70;;;2.80;;
78744;SDS011;68064;53.100;8.824;2023-05-07T05:39:00;9.50;;;2.42;;
78744;SDS011;68064;53.100;8.824;2023-05-07T05:40:01;9.18;;;2.15;;
78744;SDS011;68064;53.100;8.824;2023-05-07T05:41:02;9.85;;;2.67;;
78744;SDS011;68064;53.100;8.824;2023-05-07T05:42:03;9.48;;;2.47;;
78744;SDS011;68064;53.100;8.824;2023-05-07T05:44:07;9.18;;;2.35;;
78744;SDS011;68064;53.100;8.824;2023-05-07T05:45:09;8.95;;;2.60;;
78744;SDS011;68064;53.100;8.824;2023-05-07T05:46:10;9.05;;;2.50;;
78744;SDS011;68064;53.100;8.824;2023-05-07T05:47:11;7.72;;;2.13;;
78744;SDS011;68064;53.100;8.824;2023-05-07T05:48:12;6.28;;;1.33;;
78744;SDS011;68064;53.100;8.824;2023-05-07T05:49:13;8.98;;;2.30;;
78744;SDS011;68064;53.100;8.824;2023-05-07T05:50:14;8.30;;;2.00;;
78744;SDS011;68064;53.100;8.824;2023-05-07T05:51:15;9.13;;;2.65;;
78744;SDS011;68064;53.100;8.824;2023-05-07T05:52:16;9.18;;;2.72;;
78744;SDS011;68064;53.100;8.824;2023-05-07T05:53:17;8.48;;;2.00;;
78744;SDS011;68064;53.100;8.824;2023-05-07T05:54:21;10.00;;;2.55;;
78744;SDS011;68064;53.100;8.824;2023-05-07T05:55:22;8.68;;;2.03;;
78744;SDS011;68064;53.100;8.824;2023-05-07T05:56:23;8.07;;;1.90;;
78744;SDS011;68064;53.100;8.824;2023-05-07T05:57:24;8.35;;;1.80;;
78744;SDS011;68064;53.100;8.824;2023-05-07T05:58:25;7.35;;;1.92;;
78744;SDS011;68064;53.100;8.824;2023-05-07T06:00:28;9.05;;;2.33;;
78744;SDS011;68064;53.100;8.824;2023-05-07T06:01:30;9.20;;;2.50;;
78744;SDS011;68064;53.100;8.824;2023-05-07T06:02:31;7.85;;;1.92;;
78744;SDS011;68064;53.100;8.824;2023-05-07T06:04:33;9.75;;;2.60;;
78744;SDS011;68064;53.100;8.824;2023-05-07T06:05:34;7.70;;;2.10;;
78744;SDS011;68064;53.100;8.824;2023-05-07T06:06:35;10.07;;;3.00;;
78744;SDS011;68064;53.100;8.824;2023-05-07T06:07:36;7.32;;;1.73;;
78744;SDS011;68064;53.100;8.824;2023-05-07T06:08:37;9.32;;;2.88;;
78744;SDS011;68064;53.100;8.824;2023-05-07T06:09:38;8.13;;;2.10;;
78744;SDS011;68064;53.100;8.824;2023-05-07T06:10:39;7.35;;;1.67;;
78744;SDS011;68064;53.100;8.824;2023-05-07T06:12:41;8.55;;;2.33;;
78744;SDS011;68064;53.100;8.824;2023-05-07T06:13:42;8.10;;;2.50;;
78744;SDS011;68064;53.100;8.824;2023-05-07T06:14:45;8.50;;;2.17;;
78744;SDS011;68064;53.100;8.824;2023-05-07T06:15:46;6.70;;;1.52;;
78744;SDS011;68064;53.100;8.824;2023-05-07T06:16:47;8.27;;;1.90;;
78744;SDS011;68064;53.100;8.824;2023-05-07T06:17:48;8.05;;;2.47;;
78744;SDS011;68064;53.100;8.824;2023-05-07T06:18:49;7.68;;;1.45;;
78744;SDS011;68064;53.100;8.824;2023-05-07T06:19:50;8.32;;;2.22;;
78744;SDS011;68064;53.100;8.824;2023-05-07T06:21:52;8.25;;;1.83;;
78744;SDS011;68064;53.100;8.824;2023-05-07T06:22:55;8.25;;;1.98;;
78744;SDS011;68064;53.100;8.824;2023-05-07T06:23:56;6.95;;;1.30;;
78744;SDS011;68064;53.100;8.824;2023-05-07T06:24:57;7.53;;;1.85;;
78744;SDS011;68064;53.100;8.824;2023-05-07T06:25:58;7.95;;;1.50;;
78744;SDS011;68064;53.100;8.824;2023-05-07T06:27:00;7.47;;;1.40;;
78744;SDS011;68064;53.100;8.824;2023-05-07T06:28:01;7.10;;;1.52;;
78744;SDS011;68064;53.100;8.824;2023-05-07T06:29:02;7.35;;;2.10;;
78744;SDS011;68064;53.100;8.824;2023-05-07T06:30:05;8.43;;;2.35;;
78744;SDS011;68064;53.100;8.824;2023-05-07T06:31:11;7.00;;;1.67;;
78744;SDS011;68064;53.100;8.824;2023-05-07T06:32:13;7.55;;;1.90;;
78744;SDS011;68064;53.100;8.824;2023-05-07T06:33:14;6.32;;;1.25;;
78744;SDS011;68064;53.100;8.824;2023-05-07T06:34:15;8.63;;;1.55;;
78744;SDS011;68064;53.100;8.824;2023-05-07T06:35:16;8.85;;;2.10;;
78744;SDS011;68064;53.100;8.824;2023-05-07T06:37:18;6.65;;;1.33;;
78744;SDS011;68064;53.100;8.824;2023-05-07T06:38:19;7.00;;;1.67;;
78744;SDS011;68064;53.100;8.824;2023-05-07T06:39:20;11.30;;;1.85;;
78744;SDS011;68064;53.100;8.824;2023-05-07T06:40:21;7.45;;;1.33;;
78744;SDS011;68064;53.100;8.824;2023-05-07T06:41:22;6.68;;;1.40;;